createdAt,value
2023-05-10T00:02:13.855Z,3.07
2023-05-10T00:04:40.710Z,3.40
2023-05-10T00:07:07.968Z,3.50
2023-05-10T00:09:34.920Z,3.20
2023-05-10T00:12:01.820Z,3.20
2023-05-10T00:14:28.892Z,3.10
2023-05-10T00:16:55.951Z,3.23
2023-05-10T00:19:22.896Z,3.53
2023-05-10T00:21:50.182Z,3.40
2023-05-10T00:24:17.028Z,3.10
2023-05-10T00:26:44.000Z,3.40
2023-05-10T00:29:10.932Z,3.30
2023-05-10T00:31:38.065Z,3.57
2023-05-10T00:34:04.938Z,3.67
2023-05-10T00:36:32.498Z,3.77
2023-05-10T00:39:00.135Z,3.50
2023-05-10T00:41:27.101Z,3.30
2023-05-10T00:43:53.975Z,3.20
2023-05-10T00:46:21.902Z,3.77
2023-05-10T00:48:49.304Z,3.40
2023-05-10T00:51:16.319Z,3.90
2023-05-10T00:53:45.465Z,3.40
2023-05-10T00:56:13.530Z,4.00
2023-05-10T00:58:43.720Z,4.00
2023-05-10T01:01:10.996Z,3.60
2023-05-10T01:03:38.724Z,3.80
2023-05-10T01:06:06.030Z,3.63
2023-05-10T01:08:33.540Z,3.93
2023-05-10T01:11:00.725Z,3.90
2023-05-10T01:13:34.586Z,4.13
2023-05-10T01:16:04.400Z,3.50
2023-05-10T01:18:33.306Z,4.13
2023-05-10T01:21:12.656Z,4.10
2023-05-10T01:24:09.577Z,4.00
2023-05-10T01:26:49.535Z,4.03
2023-05-10T01:29:42.542Z,4.23
2023-05-10T01:32:28.046Z,4.20
2023-05-10T01:35:03.945Z,3.97
2023-05-10T01:37:48.241Z,4.30
2023-05-10T01:40:20.912Z,3.63
2023-05-10T01:42:55.423Z,3.83
2023-05-10T01:45:59.271Z,4.67
2023-05-10T01:48:29.974Z,3.93
2023-05-10T01:50:58.547Z,4.13
2023-05-10T01:53:25.823Z,4.53
2023-05-10T01:55:55.432Z,4.00
2023-05-10T01:58:29.710Z,4.20
2023-05-10T02:00:59.632Z,4.43
2023-05-10T02:03:29.087Z,4.00
2023-05-10T02:05:57.675Z,4.30
2023-05-10T02:08:25.218Z,4.40
2023-05-10T02:10:56.044Z,4.10
2023-05-10T02:13:25.939Z,4.50
2023-05-10T02:15:54.857Z,4.23
2023-05-10T02:18:23.720Z,4.03
2023-05-10T02:20:52.555Z,4.33
2023-05-10T02:23:21.460Z,4.57
2023-05-10T02:25:50.604Z,4.50
2023-05-10T02:28:19.407Z,4.63
2023-05-10T02:30:47.832Z,4.10
2023-05-10T02:33:15.536Z,4.10
2023-05-10T02:35:42.808Z,4.40
2023-05-10T02:38:11.303Z,4.30
2023-05-10T02:40:39.222Z,4.37
2023-05-10T02:43:10.560Z,4.50
2023-05-10T02:45:40.229Z,4.50
2023-05-10T02:48:08.090Z,4.33
2023-05-10T02:50:37.209Z,4.27
2023-05-10T02:53:11.141Z,4.30
2023-05-10T02:55:40.197Z,4.40
2023-05-10T02:58:07.732Z,3.97
2023-05-10T03:00:34.858Z,4.40
2023-05-10T03:03:02.829Z,3.73
2023-05-10T03:05:29.766Z,4.73
2023-05-10T03:07:56.998Z,4.63
2023-05-10T03:10:28.986Z,4.33
2023-05-10T03:13:01.879Z,4.77
2023-05-10T03:15:39.058Z,4.40
2023-05-10T03:18:29.554Z,4.33
2023-05-10T03:21:06.415Z,4.60
2023-05-10T03:24:10.223Z,4.70
2023-05-10T03:26:39.032Z,4.00
2023-05-10T03:29:07.492Z,4.50
2023-05-10T03:31:34.611Z,4.63
2023-05-10T03:34:01.530Z,4.57
2023-05-10T03:36:28.559Z,4.80
2023-05-10T03:38:56.933Z,5.00
2023-05-10T03:41:23.848Z,4.23
2023-05-10T03:43:50.648Z,4.47
2023-05-10T03:46:17.936Z,4.70
2023-05-10T03:48:44.758Z,4.33
2023-05-10T03:51:11.786Z,4.97
2023-05-10T03:53:38.608Z,4.83
2023-05-10T03:56:05.646Z,4.80
2023-05-10T03:58:32.539Z,5.13
2023-05-10T04:00:59.567Z,4.77
2023-05-10T04:03:27.627Z,4.53
2023-05-10T04:06:02.471Z,4.77
2023-05-10T04:08:30.194Z,4.53
2023-05-10T04:11:07.620Z,4.83
2023-05-10T04:13:34.591Z,4.90
2023-05-10T04:16:01.555Z,4.80
2023-05-10T04:18:28.807Z,4.93
2023-05-10T04:20:55.641Z,4.50
2023-05-10T04:23:22.792Z,4.70
2023-05-10T04:25:49.667Z,4.77
2023-05-10T04:28:16.841Z,4.40
2023-05-10T04:30:44.029Z,4.80
2023-05-10T04:33:11.176Z,4.80
2023-05-10T04:35:38.176Z,5.00
2023-05-10T04:38:05.066Z,4.53
2023-05-10T04:40:32.106Z,4.77
2023-05-10T04:42:59.152Z,4.53
2023-05-10T04:45:26.239Z,4.53
2023-05-10T04:47:53.195Z,3.83
2023-05-10T04:50:22.706Z,4.60
2023-05-10T04:52:49.797Z,4.43
2023-05-10T04:55:17.393Z,4.20
2023-05-10T04:57:44.456Z,4.53
2023-05-10T05:00:12.360Z,4.37
2023-05-10T05:02:39.532Z,4.30
2023-05-10T05:05:07.107Z,4.60
2023-05-10T05:07:34.381Z,4.40
2023-05-10T05:10:01.334Z,4.70
2023-05-10T05:12:28.438Z,4.50
2023-05-10T05:14:55.427Z,4.73
2023-05-10T05:17:22.623Z,5.00
2023-05-10T05:19:49.450Z,4.20
2023-05-10T05:22:19.576Z,14.33
2023-05-10T05:24:47.118Z,4.67
2023-05-10T05:27:14.217Z,4.40
2023-05-10T05:29:41.106Z,4.47
2023-05-10T05:32:09.607Z,4.77
2023-05-10T05:34:36.910Z,4.30
2023-05-10T05:37:03.967Z,4.63
2023-05-10T05:39:31.003Z,4.80
2023-05-10T05:41:57.925Z,4.83
2023-05-10T05:44:24.825Z,11.63
2023-05-10T05:46:51.836Z,4.87
2023-05-10T05:49:18.940Z,4.80
2023-05-10T05:51:46.339Z,4.47
2023-05-10T05:54:13.238Z,4.77
2023-05-10T05:56:40.146Z,4.50
2023-05-10T05:59:07.393Z,4.70
2023-05-10T06:01:34.550Z,6.00
2023-05-10T06:04:01.672Z,4.33
2023-05-10T06:06:29.104Z,4.50
2023-05-10T06:08:57.742Z,4.50
2023-05-10T06:11:25.258Z,4.93
2023-05-10T06:13:52.168Z,4.70
2023-05-10T06:16:19.332Z,4.97
2023-05-10T06:18:46.348Z,5.50
2023-05-10T06:21:13.427Z,4.73
2023-05-10T06:23:40.341Z,4.87
2023-05-10T06:26:07.510Z,4.50
2023-05-10T06:28:34.872Z,5.17
2023-05-10T06:31:01.966Z,5.10
2023-05-10T06:33:29.396Z,4.73
2023-05-10T06:35:56.234Z,5.00
2023-05-10T06:38:23.366Z,5.20
2023-05-10T06:40:50.362Z,4.60
2023-05-10T06:43:17.212Z,4.80
2023-05-10T06:45:44.501Z,5.10
2023-05-10T06:48:11.414Z,5.17
2023-05-10T06:50:38.628Z,5.17
2023-05-10T06:53:05.651Z,8.17
2023-05-10T06:55:32.767Z,5.10
2023-05-10T06:57:59.781Z,5.53
2023-05-10T07:00:27.246Z,5.10
2023-05-10T07:02:54.056Z,5.30
2023-05-10T07:05:21.520Z,4.83
2023-05-10T07:07:48.807Z,4.63
2023-05-10T07:10:15.998Z,5.37
2023-05-10T07:12:43.150Z,5.03
2023-05-10T07:15:17.518Z,4.90
2023-05-10T07:17:46.025Z,4.40
2023-05-10T07:20:14.600Z,4.23
2023-05-10T07:22:41.917Z,4.47
2023-05-10T07:25:09.927Z,5.10
2023-05-10T07:27:37.230Z,4.60
2023-05-10T07:30:04.483Z,4.93
2023-05-10T07:32:31.827Z,4.70
2023-05-10T07:35:00.967Z,4.50
2023-05-10T07:37:27.935Z,4.47
2023-05-10T07:39:54.779Z,4.93
2023-05-10T07:42:22.630Z,4.60
2023-05-10T07:44:49.541Z,5.00
2023-05-10T07:47:16.365Z,4.87
2023-05-10T07:49:43.633Z,4.40
2023-05-10T07:52:10.700Z,4.60
2023-05-10T07:54:37.770Z,4.33
2023-05-10T07:57:04.789Z,4.50
2023-05-10T07:59:31.658Z,4.63
2023-05-10T08:02:01.875Z,4.73
2023-05-10T08:04:28.991Z,5.30
2023-05-10T08:06:56.088Z,5.33
2023-05-10T08:09:25.156Z,5.03
2023-05-10T08:11:52.421Z,4.73
2023-05-10T08:14:19.499Z,4.60
2023-05-10T08:16:46.421Z,5.33
2023-05-10T08:19:13.444Z,4.67
2023-05-10T08:21:44.134Z,4.77
2023-05-10T08:24:11.214Z,5.70
2023-05-10T08:26:38.568Z,5.50
2023-05-10T08:29:05.553Z,5.30
2023-05-10T08:31:32.556Z,5.03
2023-05-10T08:33:59.422Z,5.30
2023-05-10T08:36:26.359Z,5.17
2023-05-10T08:38:53.513Z,5.53
2023-05-10T08:41:27.426Z,5.40
2023-05-10T08:43:55.795Z,6.00
2023-05-10T08:46:24.765Z,5.50
2023-05-10T08:48:53.416Z,5.83
2023-05-10T08:51:27.923Z,5.90
2023-05-10T08:53:55.352Z,5.93
2023-05-10T08:56:22.589Z,6.37
2023-05-10T08:58:50.992Z,6.30
2023-05-10T09:01:19.483Z,5.90
2023-05-10T09:03:48.569Z,5.90
2023-05-10T09:06:17.090Z,5.87
2023-05-10T09:08:44.477Z,6.73
2023-05-10T09:11:13.097Z,6.20
2023-05-10T09:13:40.389Z,6.17
2023-05-10T09:16:20.439Z,5.77
2023-05-10T09:18:50.789Z,6.80
2023-05-10T09:21:17.882Z,5.97
2023-05-10T09:23:48.664Z,6.67
2023-05-10T09:26:16.227Z,6.60
2023-05-10T09:28:54.109Z,6.70
2023-05-10T09:31:21.584Z,6.40
2023-05-10T09:33:49.950Z,6.90
2023-05-10T09:36:17.496Z,6.70
2023-05-10T09:38:53.105Z,7.40
2023-05-10T09:41:21.899Z,7.90
2023-05-10T09:43:49.509Z,8.00
2023-05-10T09:46:17.694Z,8.53
2023-05-10T09:48:48.975Z,9.37
2023-05-10T09:51:28.062Z,9.60
2023-05-10T09:54:14.625Z,9.60
2023-05-10T09:56:41.839Z,9.47
2023-05-10T09:59:14.194Z,9.57
2023-05-10T10:01:42.192Z,10.10
2023-05-10T10:04:10.946Z,12.10
2023-05-10T10:06:41.262Z,11.73
2023-05-10T10:09:08.993Z,11.47
2023-05-10T10:11:37.634Z,10.93
2023-05-10T10:14:05.089Z,10.37
2023-05-10T10:16:33.193Z,12.53
2023-05-10T10:19:00.478Z,10.67
2023-05-10T10:21:28.161Z,12.40
2023-05-10T10:23:55.521Z,12.43
2023-05-10T10:26:23.433Z,11.80
2023-05-10T10:29:03.459Z,12.43
2023-05-10T10:31:40.581Z,11.20
2023-05-10T10:34:18.621Z,11.47
2023-05-10T10:36:47.965Z,12.60
2023-05-10T10:39:17.389Z,12.87
2023-05-10T10:41:55.358Z,13.57
2023-05-10T10:44:35.353Z,13.00
2023-05-10T10:47:19.948Z,12.93
2023-05-10T10:49:47.750Z,14.30
2023-05-10T10:52:16.344Z,13.93
2023-05-10T10:54:51.647Z,13.57
2023-05-10T10:57:20.504Z,15.03
2023-05-10T10:59:47.617Z,15.03
2023-05-10T11:02:47.193Z,15.00
2023-05-10T11:05:47.694Z,16.63
2023-05-10T11:08:19.946Z,15.93
2023-05-10T11:11:02.065Z,15.07
2023-05-10T11:13:41.406Z,14.47
2023-05-10T11:16:20.011Z,15.10
2023-05-10T11:19:01.400Z,15.37
2023-05-10T11:21:28.755Z,16.20
2023-05-10T11:24:07.120Z,15.07
2023-05-10T11:26:36.650Z,14.90
2023-05-10T11:29:05.925Z,15.73
2023-05-10T11:31:33.380Z,14.97
2023-05-10T11:34:05.442Z,15.43
2023-05-10T11:36:38.021Z,15.13
2023-05-10T11:39:06.661Z,14.90
2023-05-10T11:41:33.995Z,14.97
2023-05-10T11:44:01.125Z,15.93
2023-05-10T11:46:29.738Z,14.27
2023-05-10T11:49:05.702Z,15.20
2023-05-10T11:51:36.933Z,13.73
2023-05-10T11:54:09.890Z,12.83
2023-05-10T11:56:38.383Z,13.10
2023-05-10T11:59:05.605Z,14.33
2023-05-10T12:01:33.386Z,13.00
2023-05-10T12:04:01.622Z,13.53
2023-05-10T12:06:32.909Z,13.43
2023-05-10T12:09:00.192Z,13.67
2023-05-10T12:11:28.678Z,14.23
2023-05-10T12:13:57.863Z,14.40
2023-05-10T12:16:27.157Z,13.20
2023-05-10T12:18:57.310Z,13.57
2023-05-10T12:21:24.765Z,13.07
2023-05-10T12:23:54.501Z,13.10
2023-05-10T12:26:30.030Z,11.97
2023-05-10T12:32:03.750Z,12.43
2023-05-10T12:34:36.143Z,12.93
2023-05-10T12:37:06.948Z,11.43
2023-05-10T12:39:45.078Z,13.60
2023-05-10T12:42:12.306Z,11.77
2023-05-10T12:44:40.476Z,11.50
2023-05-10T12:47:07.541Z,10.47
2023-05-10T12:49:35.260Z,12.10
2023-05-10T12:52:02.031Z,13.00
2023-05-10T12:54:29.212Z,11.40
2023-05-10T12:56:56.011Z,11.27
2023-05-10T12:59:23.984Z,11.43
2023-05-10T13:01:50.946Z,9.87
2023-05-10T13:04:18.122Z,10.10
2023-05-10T13:06:45.245Z,10.13
2023-05-10T13:09:14.515Z,9.60
2023-05-10T13:11:41.752Z,8.80
2023-05-10T13:14:08.536Z,11.00
2023-05-10T13:16:35.599Z,10.50
2023-05-10T13:19:02.654Z,10.40
2023-05-10T13:21:29.710Z,11.37
2023-05-10T13:23:56.847Z,11.67
2023-05-10T13:26:23.823Z,11.27
2023-05-10T13:28:52.917Z,11.00
2023-05-10T13:31:19.786Z,10.60
2023-05-10T13:33:46.755Z,11.03
2023-05-10T13:36:13.746Z,11.83
2023-05-10T13:38:40.771Z,10.90
2023-05-10T13:41:07.750Z,10.97
2023-05-10T13:43:34.547Z,10.33
2023-05-10T13:46:01.549Z,10.40
2023-05-10T13:48:28.558Z,9.73
2023-05-10T13:50:55.966Z,10.20
2023-05-10T13:53:22.928Z,11.10
2023-05-10T13:55:49.997Z,10.50
2023-05-10T13:58:17.064Z,11.60
2023-05-10T14:00:44.445Z,10.80
2023-05-10T14:03:14.223Z,11.93
2023-05-10T14:05:41.322Z,10.53
2023-05-10T14:08:10.673Z,10.73
2023-05-10T14:10:38.036Z,10.20
2023-05-10T14:13:04.854Z,10.10
2023-05-10T14:15:31.970Z,10.63
2023-05-10T14:17:58.700Z,9.60
2023-05-10T14:20:25.532Z,10.50
2023-05-10T14:22:52.746Z,9.40
2023-05-10T14:25:20.194Z,9.27
2023-05-10T14:27:47.921Z,9.63
2023-05-10T14:30:15.099Z,10.43
2023-05-10T14:32:41.907Z,9.93
2023-05-10T14:35:10.719Z,9.67
2023-05-10T14:37:39.289Z,10.13
2023-05-10T14:40:07.642Z,9.93
2023-05-10T14:42:34.468Z,10.10
2023-05-10T14:45:06.933Z,10.43
2023-05-10T14:47:33.968Z,10.73
2023-05-10T14:50:01.309Z,10.77
2023-05-10T14:52:28.788Z,10.73
2023-05-10T14:54:56.661Z,9.33
2023-05-10T14:57:23.495Z,10.03
2023-05-10T14:59:50.331Z,10.43
2023-05-10T15:02:17.765Z,9.73
2023-05-10T15:04:44.972Z,10.23
2023-05-10T15:07:15.436Z,9.70
2023-05-10T15:09:42.350Z,9.50
2023-05-10T15:12:09.235Z,9.80
2023-05-10T15:14:39.267Z,10.33
2023-05-10T15:17:08.403Z,9.60
2023-05-10T15:19:35.384Z,9.87
2023-05-10T15:22:02.289Z,9.40
2023-05-10T15:24:32.801Z,10.53
2023-05-10T15:27:00.018Z,10.53
2023-05-10T15:29:26.763Z,11.73
2023-05-10T15:31:57.393Z,12.63
2023-05-10T15:34:24.345Z,14.20
2023-05-10T15:36:51.262Z,14.47
2023-05-10T15:39:18.321Z,14.97
2023-05-10T15:41:45.112Z,17.20
2023-05-10T15:44:12.282Z,17.07
2023-05-10T15:46:39.304Z,16.53
2023-05-10T15:49:07.001Z,18.63
2023-05-10T15:51:36.922Z,18.30
2023-05-10T15:54:07.513Z,17.47
2023-05-10T15:56:35.715Z,18.57
2023-05-10T15:59:03.978Z,20.40
2023-05-10T16:01:33.306Z,19.60
2023-05-10T16:04:01.181Z,18.33
2023-05-10T16:06:28.313Z,18.33
2023-05-10T16:08:55.260Z,15.90
2023-05-10T16:11:22.716Z,14.33
2023-05-10T16:13:49.864Z,13.87
2023-05-10T16:16:17.487Z,11.90
2023-05-10T16:18:44.634Z,13.87
2023-05-10T16:21:11.805Z,14.33
2023-05-10T16:23:38.750Z,14.70
2023-05-10T16:26:05.600Z,11.13
2023-05-10T16:28:32.736Z,10.73
2023-05-10T16:30:59.641Z,10.40
2023-05-10T16:33:27.385Z,10.20
2023-05-10T16:35:54.413Z,11.03
2023-05-10T16:38:22.165Z,11.47
2023-05-10T16:40:49.450Z,11.17
2023-05-10T16:43:16.658Z,11.97
2023-05-10T16:45:43.830Z,11.13
2023-05-10T16:48:13.359Z,13.17
2023-05-10T16:50:44.642Z,12.37
2023-05-10T16:53:11.869Z,14.77
2023-05-10T16:55:38.794Z,15.50
2023-05-10T16:58:06.036Z,14.23
2023-05-10T17:00:33.107Z,13.50
2023-05-10T17:03:00.566Z,14.53
2023-05-10T17:05:27.825Z,14.13
2023-05-10T17:07:54.942Z,14.00
2023-05-10T17:10:22.054Z,14.30
2023-05-10T17:12:49.423Z,14.70
2023-05-10T17:15:17.789Z,14.73
2023-05-10T17:17:45.252Z,14.43
2023-05-10T17:20:12.409Z,13.70
2023-05-10T17:22:39.850Z,13.23
2023-05-10T17:25:07.480Z,11.13
2023-05-10T17:27:34.441Z,10.03
2023-05-10T17:30:02.061Z,9.57
2023-05-10T17:32:29.139Z,10.47
2023-05-10T17:34:56.176Z,10.03
2023-05-10T17:37:23.614Z,9.10
2023-05-10T17:39:50.585Z,8.90
2023-05-10T17:42:21.073Z,10.60
2023-05-10T17:44:48.179Z,9.13
2023-05-10T17:47:15.325Z,8.97
2023-05-10T17:49:42.663Z,10.00
2023-05-10T17:52:10.091Z,9.87
2023-05-10T17:54:37.225Z,9.17
2023-05-10T17:57:04.267Z,10.87
2023-05-10T17:59:31.367Z,10.47
2023-05-10T18:01:59.063Z,11.27
2023-05-10T18:04:26.387Z,11.20
2023-05-10T18:07:01.279Z,11.30
2023-05-10T18:09:29.204Z,12.23
2023-05-10T18:11:55.963Z,10.83
2023-05-10T18:14:36.511Z,10.63
2023-05-10T18:17:07.406Z,11.43
2023-05-10T18:19:34.253Z,10.00
2023-05-10T18:22:01.260Z,9.70
2023-05-10T18:24:38.310Z,8.70
2023-05-10T18:27:09.016Z,8.37
2023-05-10T18:29:36.536Z,7.57
2023-05-10T18:32:03.783Z,6.83
2023-05-10T18:34:30.707Z,7.60
2023-05-10T18:36:57.986Z,7.23
2023-05-10T18:39:25.244Z,6.80
2023-05-10T18:41:52.646Z,6.77
2023-05-10T18:44:19.680Z,6.47
2023-05-10T18:46:46.932Z,6.80
2023-05-10T18:49:14.250Z,5.90
2023-05-10T18:51:41.411Z,5.63
2023-05-10T18:54:08.546Z,5.67
2023-05-10T18:56:35.768Z,5.87
2023-05-10T18:59:03.832Z,5.70
2023-05-10T19:01:31.141Z,5.27
2023-05-10T19:03:58.310Z,5.93
2023-05-10T19:06:25.519Z,5.90
2023-05-10T19:08:52.829Z,6.13
2023-05-10T19:11:20.098Z,6.00
2023-05-10T19:13:47.167Z,6.70
2023-05-10T19:16:21.827Z,6.37
2023-05-10T19:18:50.793Z,8.00
2023-05-10T19:21:18.094Z,8.23
2023-05-10T19:23:45.144Z,8.00
2023-05-10T19:26:12.729Z,7.63
2023-05-10T19:28:40.886Z,8.33
2023-05-10T19:31:08.942Z,8.87
2023-05-10T19:33:38.341Z,9.03
2023-05-10T19:36:05.769Z,9.97
2023-05-10T19:38:32.594Z,9.57
2023-05-10T19:40:59.765Z,9.57
2023-05-10T19:43:28.266Z,10.67
2023-05-10T19:45:59.159Z,11.53
2023-05-10T19:48:26.750Z,12.40
2023-05-10T19:50:54.752Z,13.43
2023-05-10T19:53:21.688Z,13.27
2023-05-10T19:55:48.726Z,14.80
2023-05-10T19:58:15.799Z,15.93
2023-05-10T20:00:42.768Z,14.80
2023-05-10T20:03:09.871Z,15.83
2023-05-10T20:05:36.899Z,15.80
2023-05-10T20:08:03.963Z,14.77
2023-05-10T20:10:30.721Z,15.03
2023-05-10T20:12:59.024Z,15.40
2023-05-10T20:15:26.211Z,17.07
2023-05-10T20:17:53.916Z,16.70
2023-05-10T20:20:21.543Z,16.97
2023-05-10T20:22:48.880Z,17.07
2023-05-10T20:25:16.870Z,18.63
2023-05-10T20:27:44.680Z,17.57
2023-05-10T20:30:12.008Z,18.50
2023-05-10T20:32:39.481Z,18.37
2023-05-10T20:35:07.587Z,19.27
2023-05-10T20:37:34.810Z,19.40
2023-05-10T20:40:01.740Z,19.83
2023-05-10T20:42:28.792Z,19.53
2023-05-10T20:44:56.240Z,20.03
2023-05-10T20:47:23.872Z,20.67
2023-05-10T20:49:51.158Z,20.93
2023-05-10T20:52:18.151Z,22.23
2023-05-10T20:54:45.278Z,22.47
2023-05-10T20:57:14.305Z,22.23
2023-05-10T20:59:41.135Z,21.50
2023-05-10T21:02:08.320Z,22.67
2023-05-10T21:04:35.290Z,21.47
2023-05-10T21:07:02.262Z,23.97
2023-05-10T21:09:29.353Z,24.13
2023-05-10T21:11:56.334Z,24.33
2023-05-10T21:14:23.219Z,23.83
2023-05-10T21:16:51.493Z,24.43
2023-05-10T21:19:18.512Z,24.77
2023-05-10T21:21:45.277Z,24.43
2023-05-10T21:24:12.516Z,23.63
2023-05-10T21:26:39.356Z,24.77
2023-05-10T21:29:06.752Z,23.13
2023-05-10T21:31:33.891Z,23.47
2023-05-10T21:34:01.170Z,25.87
2023-05-10T21:36:28.422Z,25.17
2023-05-10T21:38:55.376Z,25.67
2023-05-10T21:41:22.628Z,23.53
2023-05-10T21:43:49.730Z,23.57
2023-05-10T21:46:16.599Z,23.30
2023-05-10T21:48:43.589Z,23.80
2023-05-10T21:51:10.683Z,25.20
2023-05-10T21:53:39.364Z,24.87
2023-05-10T21:56:07.553Z,26.80
2023-05-10T21:58:34.681Z,24.40
2023-05-10T22:01:02.753Z,25.97
2023-05-10T22:03:29.744Z,26.83
2023-05-10T22:05:56.629Z,26.37
2023-05-10T22:08:23.613Z,27.10
2023-05-10T22:10:52.299Z,26.13
2023-05-10T22:13:21.984Z,27.47
2023-05-10T22:15:48.751Z,27.17
2023-05-10T22:18:15.948Z,27.73
2023-05-10T22:20:45.699Z,29.63
2023-05-10T22:23:13.264Z,28.97
2023-05-10T22:25:42.808Z,27.97
2023-05-10T22:28:10.956Z,25.73
2023-05-10T22:30:38.130Z,24.57
2023-05-10T22:33:05.132Z,25.33
2023-05-10T22:35:32.040Z,25.80
2023-05-10T22:37:58.888Z,23.73
2023-05-10T22:40:26.059Z,24.27
2023-05-10T22:42:53.308Z,25.53
2023-05-10T22:45:20.348Z,25.90
2023-05-10T22:47:47.532Z,25.53
2023-05-10T22:50:14.743Z,24.13
2023-05-10T22:52:41.932Z,24.60
2023-05-10T22:55:09.484Z,25.10
2023-05-10T22:57:36.924Z,25.70
2023-05-10T23:00:05.421Z,26.70
2023-05-10T23:02:32.586Z,26.97
2023-05-10T23:04:59.571Z,25.47
2023-05-10T23:07:26.711Z,26.17
2023-05-10T23:09:53.658Z,26.63
2023-05-10T23:12:20.508Z,25.13
2023-05-10T23:14:47.845Z,24.73
2023-05-10T23:17:17.156Z,26.83
2023-05-10T23:19:43.990Z,27.20
2023-05-10T23:22:11.047Z,25.77
2023-05-10T23:24:39.407Z,23.80
2023-05-10T23:27:06.319Z,26.13
2023-05-10T23:29:36.618Z,26.43
2023-05-10T23:32:03.527Z,29.23
2023-05-10T23:34:30.933Z,27.83
2023-05-10T23:36:57.792Z,26.97
2023-05-10T23:39:24.669Z,26.43
2023-05-10T23:41:52.151Z,26.07
2023-05-10T23:44:19.127Z,26.43
2023-05-10T23:46:46.232Z,26.50
2023-05-10T23:49:13.214Z,28.77
2023-05-10T23:51:40.046Z,28.07
2023-05-10T23:54:07.217Z,27.80
2023-05-10T23:56:34.230Z,27.50
2023-05-10T23:59:01.358Z,27.80
